sensor_id;sensor_type;location;lat;lon;timestamp;temperature;humidity
30572;DHT22;17348;50.948;10.696;2022-07-23T00:02:12;19.70;99.90
30572;DHT22;17348;50.948;10.696;2022-07-23T00:05:14;19.70;99.90
30572;DHT22;17348;50.948;10.696;2022-07-23T00:08:17;19.70;99.90
30572;DHT22;17348;50.948;10.696;2022-07-23T00:11:19;19.70;99.90
30572;DHT22;17348;50.948;10.696;2022-07-23T00:14:24;19.70;99.90
30572;DHT22;17348;50.948;10.696;2022-07-23T00:17:26;19.70;99.90
30572;DHT22;17348;50.948;10.696;2022-07-23T00:20:28;19.70;99.90
30572;DHT22;17348;50.948;10.696;2022-07-23T00:23:30;19.60;99.90
30572;DHT22;17348;50.948;10.696;2022-07-23T00:26:33;19.60;99.90
30572;DHT22;17348;50.948;10.696;2022-07-23T00:29:37;19.60;99.90
30572;DHT22;17348;50.948;10.696;2022-07-23T00:32:46;19.70;99.90
30572;DHT22;17348;50.948;10.696;2022-07-23T00:35:49;19.70;99.90
30572;DHT22;17348;50.948;10.696;2022-07-23T00:38:51;19.70;99.90
30572;DHT22;17348;50.948;10.696;2022-07-23T00:41:53;19.60;99.90
30572;DHT22;17348;50.948;10.696;2022-07-23T00:44:57;19.60;99.90
30572;DHT22;17348;50.948;10.696;2022-07-23T00:47:59;19.60;99.90
30572;DHT22;17348;50.948;10.696;2022-07-23T00:51:02;19.60;99.90
30572;DHT22;17348;50.948;10.696;2022-07-23T00:54:04;19.60;99.90
30572;DHT22;17348;50.948;10.696;2022-07-23T00:57:07;19.50;99.90
30572;DHT22;17348;50.948;10.696;2022-07-23T01:00:13;19.50;99.90
30572;DHT22;17348;50.948;10.696;2022-07-23T01:03:16;19.40;99.90
30572;DHT22;17348;50.948;10.696;2022-07-23T01:06:21;19.30;99.90
30572;DHT22;17348;50.948;10.696;2022-07-23T01:09:26;19.30;99.90
30572;DHT22;17348;50.948;10.696;2022-07-23T01:12:28;19.30;99.90
30572;DHT22;17348;50.948;10.696;2022-07-23T01:15:32;19.20;99.90
30572;DHT22;17348;50.948;10.696;2022-07-23T01:18:35;19.20;99.90
30572;DHT22;17348;50.948;10.696;2022-07-23T01:21:38;19.10;99.90
30572;DHT22;17348;50.948;10.696;2022-07-23T01:24:42;19.10;99.90
30572;DHT22;17348;50.948;10.696;2022-07-23T01:27:44;19.10;99.90
30572;DHT22;17348;50.948;10.696;2022-07-23T01:30:47;19.00;99.90
30572;DHT22;17348;50.948;10.696;2022-07-23T01:33:49;19.00;99.90
30572;DHT22;17348;50.948;10.696;2022-07-23T01:36:51;19.00;99.90
30572;DHT22;17348;50.948;10.696;2022-07-23T01:39:55;19.00;99.90
30572;DHT22;17348;50.948;10.696;2022-07-23T01:42:57;19.00;99.90
30572;DHT22;17348;50.948;10.696;2022-07-23T01:46:00;18.90;99.90
30572;DHT22;17348;50.948;10.696;2022-07-23T01:49:02;18.90;99.90
30572;DHT22;17348;50.948;10.696;2022-07-23T01:52:05;18.90;99.90
30572;DHT22;17348;50.948;10.696;2022-07-23T01:55:11;18.90;99.90
30572;DHT22;17348;50.948;10.696;2022-07-23T01:58:13;18.90;99.90
30572;DHT22;17348;50.948;10.696;2022-07-23T02:01:17;18.80;99.90
30572;DHT22;17348;50.948;10.696;2022-07-23T02:04:20;18.80;99.90
30572;DHT22;17348;50.948;10.696;2022-07-23T02:07:23;18.80;99.90
30572;DHT22;17348;50.948;10.696;2022-07-23T02:10:27;18.80;99.90
30572;DHT22;17348;50.948;10.696;2022-07-23T02:13:29;18.80;99.90
30572;DHT22;17348;50.948;10.696;2022-07-23T02:16:32;18.70;99.90
30572;DHT22;17348;50.948;10.696;2022-07-23T02:19:34;18.50;99.90
30572;DHT22;17348;50.948;10.696;2022-07-23T02:22:37;18.30;99.90
30572;DHT22;17348;50.948;10.696;2022-07-23T02:25:40;18.10;99.90
30572;DHT22;17348;50.948;10.696;2022-07-23T02:28:43;18.10;99.90
30572;DHT22;17348;50.948;10.696;2022-07-23T02:31:45;17.90;99.90
30572;DHT22;17348;50.948;10.696;2022-07-23T02:34:47;17.80;99.90
30572;DHT22;17348;50.948;10.696;2022-07-23T02:37:50;17.60;99.90
30572;DHT22;17348;50.948;10.696;2022-07-23T02:40:53;17.50;99.90
30572;DHT22;17348;50.948;10.696;2022-07-23T02:43:56;17.50;99.90
30572;DHT22;17348;50.948;10.696;2022-07-23T02:46:58;17.50;99.90
30572;DHT22;17348;50.948;10.696;2022-07-23T02:50:00;17.50;99.90
30572;DHT22;17348;50.948;10.696;2022-07-23T02:53:02;17.40;99.90
30572;DHT22;17348;50.948;10.696;2022-07-23T02:56:06;17.40;99.90
30572;DHT22;17348;50.948;10.696;2022-07-23T02:59:09;17.30;99.90
30572;DHT22;17348;50.948;10.696;2022-07-23T03:02:11;17.30;99.90
30572;DHT22;17348;50.948;10.696;2022-07-23T03:05:13;17.40;99.90
30572;DHT22;17348;50.948;10.696;2022-07-23T03:08:16;17.40;99.90
30572;DHT22;17348;50.948;10.696;2022-07-23T03:11:19;17.40;99.90
30572;DHT22;17348;50.948;10.696;2022-07-23T03:14:22;17.40;99.90
30572;DHT22;17348;50.948;10.696;2022-07-23T03:17:24;17.40;99.90
30572;DHT22;17348;50.948;10.696;2022-07-23T03:20:26;17.30;99.90
30572;DHT22;17348;50.948;10.696;2022-07-23T03:23:28;17.30;99.90
30572;DHT22;17348;50.948;10.696;2022-07-23T03:26:32;17.20;99.90
30572;DHT22;17348;50.948;10.696;2022-07-23T03:29:34;17.20;99.90
30572;DHT22;17348;50.948;10.696;2022-07-23T03:32:37;17.10;99.90
30572;DHT22;17348;50.948;10.696;2022-07-23T03:35:40;17.20;99.90
30572;DHT22;17348;50.948;10.696;2022-07-23T03:38:42;17.20;99.90
30572;DHT22;17348;50.948;10.696;2022-07-23T03:41:46;17.20;99.90
30572;DHT22;17348;50.948;10.696;2022-07-23T03:44:48;17.30;99.90
30572;DHT22;17348;50.948;10.696;2022-07-23T03:47:50;17.30;99.90
30572;DHT22;17348;50.948;10.696;2022-07-23T03:50:52;17.30;99.90
30572;DHT22;17348;50.948;10.696;2022-07-23T03:53:55;17.30;99.90
30572;DHT22;17348;50.948;10.696;2022-07-23T03:56:58;17.30;99.90
30572;DHT22;17348;50.948;10.696;2022-07-23T04:00:01;17.30;99.90
30572;DHT22;17348;50.948;10.696;2022-07-23T04:03:03;17.30;99.90
30572;DHT22;17348;50.948;10.696;2022-07-23T04:06:06;17.20;99.90
30572;DHT22;17348;50.948;10.696;2022-07-23T04:09:08;17.20;99.90
30572;DHT22;17348;50.948;10.696;2022-07-23T04:12:12;17.20;99.90
30572;DHT22;17348;50.948;10.696;2022-07-23T04:15:15;17.10;99.90
30572;DHT22;17348;50.948;10.696;2022-07-23T04:18:17;17.10;99.90
30572;DHT22;17348;50.948;10.696;2022-07-23T04:21:23;17.10;99.90
30572;DHT22;17348;50.948;10.696;2022-07-23T04:24:25;17.00;99.90
30572;DHT22;17348;50.948;10.696;2022-07-23T04:27:29;17.10;99.90
30572;DHT22;17348;50.948;10.696;2022-07-23T04:30:34;17.00;99.90
30572;DHT22;17348;50.948;10.696;2022-07-23T04:33:37;17.00;99.90
30572;DHT22;17348;50.948;10.696;2022-07-23T04:36:39;17.00;99.90
30572;DHT22;17348;50.948;10.696;2022-07-23T04:39:41;17.00;99.90
30572;DHT22;17348;50.948;10.696;2022-07-23T04:42:45;17.00;99.90
30572;DHT22;17348;50.948;10.696;2022-07-23T04:45:47;17.00;99.90
30572;DHT22;17348;50.948;10.696;2022-07-23T04:48:49;16.90;99.90
30572;DHT22;17348;50.948;10.696;2022-07-23T04:51:52;16.90;99.90
30572;DHT22;17348;50.948;10.696;2022-07-23T04:54:54;17.00;99.90
30572;DHT22;17348;50.948;10.696;2022-07-23T04:57:57;16.90;99.90
30572;DHT22;17348;50.948;10.696;2022-07-23T05:01:00;17.00;99.90
30572;DHT22;17348;50.948;10.696;2022-07-23T05:04:02;17.00;99.90
30572;DHT22;17348;50.948;10.696;2022-07-23T05:07:05;16.90;99.90
30572;DHT22;17348;50.948;10.696;2022-07-23T05:10:07;17.00;99.90
30572;DHT22;17348;50.948;10.696;2022-07-23T05:13:11;17.10;99.90
30572;DHT22;17348;50.948;10.696;2022-07-23T05:16:13;17.10;99.90
30572;DHT22;17348;50.948;10.696;2022-07-23T05:19:16;17.10;99.90
30572;DHT22;17348;50.948;10.696;2022-07-23T05:22:18;17.10;99.90
30572;DHT22;17348;50.948;10.696;2022-07-23T05:25:20;17.10;99.90
30572;DHT22;17348;50.948;10.696;2022-07-23T05:28:24;17.10;99.90
30572;DHT22;17348;50.948;10.696;2022-07-23T05:31:26;17.10;99.90
30572;DHT22;17348;50.948;10.696;2022-07-23T05:34:29;17.10;99.90
30572;DHT22;17348;50.948;10.696;2022-07-23T05:37:31;17.20;99.90
30572;DHT22;17348;50.948;10.696;2022-07-23T05:40:33;17.20;99.90
30572;DHT22;17348;50.948;10.696;2022-07-23T05:43:37;17.30;99.90
30572;DHT22;17348;50.948;10.696;2022-07-23T05:46:39;17.30;99.90
30572;DHT22;17348;50.948;10.696;2022-07-23T05:49:41;17.40;99.90
30572;DHT22;17348;50.948;10.696;2022-07-23T05:52:44;17.50;99.90
30572;DHT22;17348;50.948;10.696;2022-07-23T05:55:46;17.50;99.90
30572;DHT22;17348;50.948;10.696;2022-07-23T05:58:50;17.50;99.90
30572;DHT22;17348;50.948;10.696;2022-07-23T06:01:52;17.50;99.90
30572;DHT22;17348;50.948;10.696;2022-07-23T06:04:55;17.50;99.90
30572;DHT22;17348;50.948;10.696;2022-07-23T06:07:57;17.50;99.90
30572;DHT22;17348;50.948;10.696;2022-07-23T06:10:59;17.50;99.90
30572;DHT22;17348;50.948;10.696;2022-07-23T06:14:03;17.60;99.90
30572;DHT22;17348;50.948;10.696;2022-07-23T06:17:05;17.60;99.90
30572;DHT22;17348;50.948;10.696;2022-07-23T06:20:09;17.60;99.90
30572;DHT22;17348;50.948;10.696;2022-07-23T06:23:11;17.60;99.90
30572;DHT22;17348;50.948;10.696;2022-07-23T06:26:14;17.60;99.90
30572;DHT22;17348;50.948;10.696;2022-07-23T06:29:17;17.80;99.90
30572;DHT22;17348;50.948;10.696;2022-07-23T06:32:20;17.90;99.90
30572;DHT22;17348;50.948;10.696;2022-07-23T06:35:22;18.00;99.90
30572;DHT22;17348;50.948;10.696;2022-07-23T06:38:25;18.00;99.90
30572;DHT22;17348;50.948;10.696;2022-07-23T06:41:30;18.00;99.90
30572;DHT22;17348;50.948;10.696;2022-07-23T06:44:34;18.10;99.90
30572;DHT22;17348;50.948;10.696;2022-07-23T06:47:36;18.10;99.90
30572;DHT22;17348;50.948;10.696;2022-07-23T06:50:39;18.10;99.90
30572;DHT22;17348;50.948;10.696;2022-07-23T06:53:41;18.30;99.90
30572;DHT22;17348;50.948;10.696;2022-07-23T06:56:44;18.40;99.90
30572;DHT22;17348;50.948;10.696;2022-07-23T06:59:47;18.50;99.90
30572;DHT22;17348;50.948;10.696;2022-07-23T07:02:49;18.60;99.90
30572;DHT22;17348;50.948;10.696;2022-07-23T07:05:52;18.70;99.90
30572;DHT22;17348;50.948;10.696;2022-07-23T07:08:54;18.70;99.90
30572;DHT22;17348;50.948;10.696;2022-07-23T07:11:57;18.80;99.90
30572;DHT22;17348;50.948;10.696;2022-07-23T07:15:00;18.90;99.90
30572;DHT22;17348;50.948;10.696;2022-07-23T07:18:03;19.00;99.90
30572;DHT22;17348;50.948;10.696;2022-07-23T07:21:05;19.10;99.90
30572;DHT22;17348;50.948;10.696;2022-07-23T07:24:08;19.30;99.90
30572;DHT22;17348;50.948;10.696;2022-07-23T07:27:10;19.50;99.90
30572;DHT22;17348;50.948;10.696;2022-07-23T07:30:14;19.50;99.90
30572;DHT22;17348;50.948;10.696;2022-07-23T07:33:16;19.70;99.90
30572;DHT22;17348;50.948;10.696;2022-07-23T07:36:19;19.60;99.90
30572;DHT22;17348;50.948;10.696;2022-07-23T07:39:21;19.60;99.90
30572;DHT22;17348;50.948;10.696;2022-07-23T07:42:23;19.70;99.90
30572;DHT22;17348;50.948;10.696;2022-07-23T07:45:27;19.70;99.90
30572;DHT22;17348;50.948;10.696;2022-07-23T07:48:29;19.70;99.90
30572;DHT22;17348;50.948;10.696;2022-07-23T07:51:32;19.60;99.90
30572;DHT22;17348;50.948;10.696;2022-07-23T07:54:36;19.50;99.90
30572;DHT22;17348;50.948;10.696;2022-07-23T07:57:39;19.50;99.90
30572;DHT22;17348;50.948;10.696;2022-07-23T08:00:43;19.60;99.90
30572;DHT22;17348;50.948;10.696;2022-07-23T08:03:45;19.60;99.90
30572;DHT22;17348;50.948;10.696;2022-07-23T08:06:48;19.60;99.90
30572;DHT22;17348;50.948;10.696;2022-07-23T08:09:50;19.60;99.90
30572;DHT22;17348;50.948;10.696;2022-07-23T08:12:54;19.50;99.90
30572;DHT22;17348;50.948;10.696;2022-07-23T08:15:58;19.40;99.90
30572;DHT22;17348;50.948;10.696;2022-07-23T08:19:01;19.40;99.90
30572;DHT22;17348;50.948;10.696;2022-07-23T08:22:03;19.40;99.90
30572;DHT22;17348;50.948;10.696;2022-07-23T08:25:05;19.40;99.90
30572;DHT22;17348;50.948;10.696;2022-07-23T08:28:09;19.30;99.90
30572;DHT22;17348;50.948;10.696;2022-07-23T08:31:13;19.20;99.90
30572;DHT22;17348;50.948;10.696;2022-07-23T08:34:17;19.10;99.90
30572;DHT22;17348;50.948;10.696;2022-07-23T08:37:19;19.10;99.90
30572;DHT22;17348;50.948;10.696;2022-07-23T08:40:22;19.10;99.90
30572;DHT22;17348;50.948;10.696;2022-07-23T08:43:26;19.20;99.90
30572;DHT22;17348;50.948;10.696;2022-07-23T08:46:29;19.20;99.90
30572;DHT22;17348;50.948;10.696;2022-07-23T08:49:32;19.30;99.90
30572;DHT22;17348;50.948;10.696;2022-07-23T08:52:35;19.40;99.90
30572;DHT22;17348;50.948;10.696;2022-07-23T08:55:38;19.40;99.90
30572;DHT22;17348;50.948;10.696;2022-07-23T08:58:40;19.40;99.90
30572;DHT22;17348;50.948;10.696;2022-07-23T09:01:44;19.30;99.90
30572;DHT22;17348;50.948;10.696;2022-07-23T09:04:46;19.30;99.90
30572;DHT22;17348;50.948;10.696;2022-07-23T09:08:18;19.30;99.90
30572;DHT22;17348;50.948;10.696;2022-07-23T09:11:22;19.20;99.90
30572;DHT22;17348;50.948;10.696;2022-07-23T09:14:36;19.20;99.90
30572;DHT22;17348;50.948;10.696;2022-07-23T09:17:42;19.30;99.90
30572;DHT22;17348;50.948;10.696;2022-07-23T09:20:46;19.30;99.90
30572;DHT22;17348;50.948;10.696;2022-07-23T09:23:54;19.40;99.90
30572;DHT22;17348;50.948;10.696;2022-07-23T09:26:56;19.50;99.90
30572;DHT22;17348;50.948;10.696;2022-07-23T09:29:58;19.70;99.90
30572;DHT22;17348;50.948;10.696;2022-07-23T09:33:06;20.00;99.90
30572;DHT22;17348;50.948;10.696;2022-07-23T09:36:09;20.30;99.90
30572;DHT22;17348;50.948;10.696;2022-07-23T09:39:13;20.40;99.90
30572;DHT22;17348;50.948;10.696;2022-07-23T09:42:17;20.80;99.90
30572;DHT22;17348;50.948;10.696;2022-07-23T09:45:19;21.10;99.90
30572;DHT22;17348;50.948;10.696;2022-07-23T09:48:23;21.30;99.90
30572;DHT22;17348;50.948;10.696;2022-07-23T09:51:25;21.60;99.90
30572;DHT22;17348;50.948;10.696;2022-07-23T09:54:33;21.70;99.90
30572;DHT22;17348;50.948;10.696;2022-07-23T09:57:36;21.80;99.90
30572;DHT22;17348;50.948;10.696;2022-07-23T10:00:40;21.80;99.90
30572;DHT22;17348;50.948;10.696;2022-07-23T10:03:45;21.70;99.90
30572;DHT22;17348;50.948;10.696;2022-07-23T10:06:51;21.40;99.90
30572;DHT22;17348;50.948;10.696;2022-07-23T10:09:58;21.20;99.90
30572;DHT22;17348;50.948;10.696;2022-07-23T10:13:01;21.10;99.90
30572;DHT22;17348;50.948;10.696;2022-07-23T10:16:34;21.10;99.90
30572;DHT22;17348;50.948;10.696;2022-07-23T10:19:38;21.00;99.90
30572;DHT22;17348;50.948;10.696;2022-07-23T10:22:46;21.10;99.90
30572;DHT22;17348;50.948;10.696;2022-07-23T10:25:57;21.20;99.90
30572;DHT22;17348;50.948;10.696;2022-07-23T10:29:08;21.50;99.90
30572;DHT22;17348;50.948;10.696;2022-07-23T10:32:20;21.80;99.90
30572;DHT22;17348;50.948;10.696;2022-07-23T10:35:33;22.30;99.90
30572;DHT22;17348;50.948;10.696;2022-07-23T10:38:51;22.70;99.90
30572;DHT22;17348;50.948;10.696;2022-07-23T10:42:07;22.90;99.90
30572;DHT22;17348;50.948;10.696;2022-07-23T10:45:27;22.90;99.90
30572;DHT22;17348;50.948;10.696;2022-07-23T10:48:30;22.90;99.90
30572;DHT22;17348;50.948;10.696;2022-07-23T10:51:34;22.70;99.90
30572;DHT22;17348;50.948;10.696;2022-07-23T10:54:36;22.70;99.90
30572;DHT22;17348;50.948;10.696;2022-07-23T10:57:48;22.50;99.90
30572;DHT22;17348;50.948;10.696;2022-07-23T11:00:51;22.50;99.90
30572;DHT22;17348;50.948;10.696;2022-07-23T11:03:56;22.60;99.90
30572;DHT22;17348;50.948;10.696;2022-07-23T11:07:10;22.80;99.90
30572;DHT22;17348;50.948;10.696;2022-07-23T11:10:31;22.90;99.90
30572;DHT22;17348;50.948;10.696;2022-07-23T11:13:40;23.00;99.90
30572;DHT22;17348;50.948;10.696;2022-07-23T11:16:46;23.00;99.90
30572;DHT22;17348;50.948;10.696;2022-07-23T11:20:18;23.00;99.90
30572;DHT22;17348;50.948;10.696;2022-07-23T11:23:57;22.90;99.90
30572;DHT22;17348;50.948;10.696;2022-07-23T11:27:03;23.00;99.90
30572;DHT22;17348;50.948;10.696;2022-07-23T11:30:07;23.30;99.90
30572;DHT22;17348;50.948;10.696;2022-07-23T11:33:22;23.50;99.90
30572;DHT22;17348;50.948;10.696;2022-07-23T11:36:25;23.90;99.90
30572;DHT22;17348;50.948;10.696;2022-07-23T11:39:30;24.10;99.90
30572;DHT22;17348;50.948;10.696;2022-07-23T11:42:34;24.20;99.90
30572;DHT22;17348;50.948;10.696;2022-07-23T11:45:37;24.30;99.90
30572;DHT22;17348;50.948;10.696;2022-07-23T11:48:39;24.20;99.90
30572;DHT22;17348;50.948;10.696;2022-07-23T11:51:42;24.20;99.90
30572;DHT22;17348;50.948;10.696;2022-07-23T11:54:50;24.00;99.90
30572;DHT22;17348;50.948;10.696;2022-07-23T11:57:53;24.20;99.90
30572;DHT22;17348;50.948;10.696;2022-07-23T12:00:55;24.50;99.90
30572;DHT22;17348;50.948;10.696;2022-07-23T12:03:57;24.70;99.90
30572;DHT22;17348;50.948;10.696;2022-07-23T12:07:00;24.80;99.90
30572;DHT22;17348;50.948;10.696;2022-07-23T12:10:09;24.90;99.90
30572;DHT22;17348;50.948;10.696;2022-07-23T12:13:13;24.90;99.90
30572;DHT22;17348;50.948;10.696;2022-07-23T12:16:18;25.10;99.90
30572;DHT22;17348;50.948;10.696;2022-07-23T12:19:20;25.50;99.90
30572;DHT22;17348;50.948;10.696;2022-07-23T12:22:23;25.60;99.90
30572;DHT22;17348;50.948;10.696;2022-07-23T12:25:29;25.50;99.90
30572;DHT22;17348;50.948;10.696;2022-07-23T12:28:32;25.50;99.90
30572;DHT22;17348;50.948;10.696;2022-07-23T12:31:38;25.30;99.90
30572;DHT22;17348;50.948;10.696;2022-07-23T12:34:41;25.10;99.90
30572;DHT22;17348;50.948;10.696;2022-07-23T12:37:47;25.00;99.90
30572;DHT22;17348;50.948;10.696;2022-07-23T12:40:54;25.20;99.90
30572;DHT22;17348;50.948;10.696;2022-07-23T12:43:56;25.50;99.90
30572;DHT22;17348;50.948;10.696;2022-07-23T12:46:59;25.70;99.90
30572;DHT22;17348;50.948;10.696;2022-07-23T12:50:06;25.80;99.90
30572;DHT22;17348;50.948;10.696;2022-07-23T12:53:11;25.90;99.90
30572;DHT22;17348;50.948;10.696;2022-07-23T12:56:16;26.10;99.90
30572;DHT22;17348;50.948;10.696;2022-07-23T12:59:18;26.10;99.90
30572;DHT22;17348;50.948;10.696;2022-07-23T13:02:21;26.30;99.90
30572;DHT22;17348;50.948;10.696;2022-07-23T13:05:23;26.40;99.90
30572;DHT22;17348;50.948;10.696;2022-07-23T13:08:29;26.60;99.60
30572;DHT22;17348;50.948;10.696;2022-07-23T13:11:33;26.70;99.20
30572;DHT22;17348;50.948;10.696;2022-07-23T13:14:35;26.80;99.10
30572;DHT22;17348;50.948;10.696;2022-07-23T13:17:37;26.80;98.70
30572;DHT22;17348;50.948;10.696;2022-07-23T13:20:39;26.90;99.20
30572;DHT22;17348;50.948;10.696;2022-07-23T13:23:42;26.60;98.80
30572;DHT22;17348;50.948;10.696;2022-07-23T13:26:45;26.60;99.30
30572;DHT22;17348;50.948;10.696;2022-07-23T13:29:50;26.80;98.00
30572;DHT22;17348;50.948;10.696;2022-07-23T13:32:52;26.80;98.40
30572;DHT22;17348;50.948;10.696;2022-07-23T13:35:55;26.80;98.40
30572;DHT22;17348;50.948;10.696;2022-07-23T13:38:57;26.80;98.10
30572;DHT22;17348;50.948;10.696;2022-07-23T13:42:01;26.80;97.60
30572;DHT22;17348;50.948;10.696;2022-07-23T13:45:04;26.80;97.10
30572;DHT22;17348;50.948;10.696;2022-07-23T13:48:07;26.90;96.90
30572;DHT22;17348;50.948;10.696;2022-07-23T13:51:09;27.10;96.60
30572;DHT22;17348;50.948;10.696;2022-07-23T13:54:12;27.30;95.90
30572;DHT22;17348;50.948;10.696;2022-07-23T13:57:15;27.10;95.90
30572;DHT22;17348;50.948;10.696;2022-07-23T14:00:18;26.80;95.90
30572;DHT22;17348;50.948;10.696;2022-07-23T14:03:21;26.80;96.60
30572;DHT22;17348;50.948;10.696;2022-07-23T14:06:24;26.40;96.10
30572;DHT22;17348;50.948;10.696;2022-07-23T14:09:27;26.10;96.90
30572;DHT22;17348;50.948;10.696;2022-07-23T14:12:31;25.90;97.10
30572;DHT22;17348;50.948;10.696;2022-07-23T14:15:34;25.70;97.10
30572;DHT22;17348;50.948;10.696;2022-07-23T14:18:38;25.70;97.30
30572;DHT22;17348;50.948;10.696;2022-07-23T14:21:41;25.80;97.00
30572;DHT22;17348;50.948;10.696;2022-07-23T14:24:44;26.00;96.10
30572;DHT22;17348;50.948;10.696;2022-07-23T14:27:48;25.90;96.00
30572;DHT22;17348;50.948;10.696;2022-07-23T14:30:50;25.80;95.50
30572;DHT22;17348;50.948;10.696;2022-07-23T14:33:53;25.60;96.10
30572;DHT22;17348;50.948;10.696;2022-07-23T14:36:55;25.50;96.30
30572;DHT22;17348;50.948;10.696;2022-07-23T14:39:57;25.60;96.90
30572;DHT22;17348;50.948;10.696;2022-07-23T14:43:01;25.70;96.30
30572;DHT22;17348;50.948;10.696;2022-07-23T14:46:04;25.80;95.90
30572;DHT22;17348;50.948;10.696;2022-07-23T14:49:06;26.00;95.40
30572;DHT22;17348;50.948;10.696;2022-07-23T14:52:09;26.10;95.20
30572;DHT22;17348;50.948;10.696;2022-07-23T14:55:11;26.10;94.80
30572;DHT22;17348;50.948;10.696;2022-07-23T14:58:15;26.20;94.00
30572;DHT22;17348;50.948;10.696;2022-07-23T15:01:17;26.30;94.30
30572;DHT22;17348;50.948;10.696;2022-07-23T15:04:19;26.60;94.00
30572;DHT22;17348;50.948;10.696;2022-07-23T15:07:21;26.70;93.40
30572;DHT22;17348;50.948;10.696;2022-07-23T15:10:24;26.80;93.10
30572;DHT22;17348;50.948;10.696;2022-07-23T15:13:27;26.80;91.80
30572;DHT22;17348;50.948;10.696;2022-07-23T15:16:30;26.80;92.30
30572;DHT22;17348;50.948;10.696;2022-07-23T15:19:32;27.00;92.10
30572;DHT22;17348;50.948;10.696;2022-07-23T15:22:35;27.00;90.50
30572;DHT22;17348;50.948;10.696;2022-07-23T15:25:38;27.00;90.10
30572;DHT22;17348;50.948;10.696;2022-07-23T15:28:42;27.00;90.60
30572;DHT22;17348;50.948;10.696;2022-07-23T15:31:44;27.00;90.40
30572;DHT22;17348;50.948;10.696;2022-07-23T15:34:47;27.00;90.20
30572;DHT22;17348;50.948;10.696;2022-07-23T15:37:49;27.10;89.10
30572;DHT22;17348;50.948;10.696;2022-07-23T15:40:52;27.20;90.00
30572;DHT22;17348;50.948;10.696;2022-07-23T15:43:56;27.20;87.70
30572;DHT22;17348;50.948;10.696;2022-07-23T15:46:59;27.10;87.80
30572;DHT22;17348;50.948;10.696;2022-07-23T15:50:01;26.80;87.60
30572;DHT22;17348;50.948;10.696;2022-07-23T15:53:03;26.70;88.60
30572;DHT22;17348;50.948;10.696;2022-07-23T15:56:06;26.70;89.20
30572;DHT22;17348;50.948;10.696;2022-07-23T15:59:10;26.90;89.20
30572;DHT22;17348;50.948;10.696;2022-07-23T16:02:12;26.80;90.40
30572;DHT22;17348;50.948;10.696;2022-07-23T16:05:15;26.70;90.50
30572;DHT22;17348;50.948;10.696;2022-07-23T16:08:17;26.70;90.40
30572;DHT22;17348;50.948;10.696;2022-07-23T16:11:20;26.70;89.90
30572;DHT22;17348;50.948;10.696;2022-07-23T16:14:23;26.50;89.60
30572;DHT22;17348;50.948;10.696;2022-07-23T16:17:26;26.40;90.00
30572;DHT22;17348;50.948;10.696;2022-07-23T16:20:28;26.30;90.40
30572;DHT22;17348;50.948;10.696;2022-07-23T16:23:30;26.40;91.00
30572;DHT22;17348;50.948;10.696;2022-07-23T16:26:33;26.50;91.00
30572;DHT22;17348;50.948;10.696;2022-07-23T16:29:37;26.60;90.60
30572;DHT22;17348;50.948;10.696;2022-07-23T16:32:39;26.40;90.50
30572;DHT22;17348;50.948;10.696;2022-07-23T16:35:42;26.40;90.60
30572;DHT22;17348;50.948;10.696;2022-07-23T16:38:45;26.50;90.60
30572;DHT22;17348;50.948;10.696;2022-07-23T16:41:47;26.40;90.00
30572;DHT22;17348;50.948;10.696;2022-07-23T16:44:51;26.30;90.40
30572;DHT22;17348;50.948;10.696;2022-07-23T16:47:53;26.20;90.40
30572;DHT22;17348;50.948;10.696;2022-07-23T16:50:56;26.20;90.20
30572;DHT22;17348;50.948;10.696;2022-07-23T16:53:58;26.10;90.00
30572;DHT22;17348;50.948;10.696;2022-07-23T16:57:00;26.10;90.30
30572;DHT22;17348;50.948;10.696;2022-07-23T17:00:05;26.10;89.90
30572;DHT22;17348;50.948;10.696;2022-07-23T17:03:09;26.10;89.50
30572;DHT22;17348;50.948;10.696;2022-07-23T17:06:11;26.00;89.50
30572;DHT22;17348;50.948;10.696;2022-07-23T17:09:14;26.00;89.90
30572;DHT22;17348;50.948;10.696;2022-07-23T17:12:17;25.80;89.70
30572;DHT22;17348;50.948;10.696;2022-07-23T17:15:20;25.80;90.10
30572;DHT22;17348;50.948;10.696;2022-07-23T17:18:24;25.80;90.20
30572;DHT22;17348;50.948;10.696;2022-07-23T17:21:26;25.70;90.30
30572;DHT22;17348;50.948;10.696;2022-07-23T17:24:28;25.70;90.90
30572;DHT22;17348;50.948;10.696;2022-07-23T17:27:31;25.60;90.50
30572;DHT22;17348;50.948;10.696;2022-07-23T17:30:35;25.50;90.80
30572;DHT22;17348;50.948;10.696;2022-07-23T17:33:37;25.50;90.70
30572;DHT22;17348;50.948;10.696;2022-07-23T17:36:39;25.40;91.00
30572;DHT22;17348;50.948;10.696;2022-07-23T17:39:42;25.30;91.10
30572;DHT22;17348;50.948;10.696;2022-07-23T17:42:44;25.20;91.20
30572;DHT22;17348;50.948;10.696;2022-07-23T17:45:48;25.20;91.10
30572;DHT22;17348;50.948;10.696;2022-07-23T17:48:50;25.20;91.40
30572;DHT22;17348;50.948;10.696;2022-07-23T17:51:52;25.10;91.30
30572;DHT22;17348;50.948;10.696;2022-07-23T17:54:54;25.10;91.50
30572;DHT22;17348;50.948;10.696;2022-07-23T17:57:57;25.10;91.40
30572;DHT22;17348;50.948;10.696;2022-07-23T18:01:05;25.00;91.40
30572;DHT22;17348;50.948;10.696;2022-07-23T18:04:08;25.00;91.40
30572;DHT22;17348;50.948;10.696;2022-07-23T18:07:11;24.90;91.40
30572;DHT22;17348;50.948;10.696;2022-07-23T18:10:14;24.80;91.30
30572;DHT22;17348;50.948;10.696;2022-07-23T18:13:16;24.80;91.70
30572;DHT22;17348;50.948;10.696;2022-07-23T18:16:20;24.70;91.70
30572;DHT22;17348;50.948;10.696;2022-07-23T18:19:22;24.70;91.70
30572;DHT22;17348;50.948;10.696;2022-07-23T18:22:24;24.60;91.90
30572;DHT22;17348;50.948;10.696;2022-07-23T18:25:27;24.40;92.00
30572;DHT22;17348;50.948;10.696;2022-07-23T18:28:29;24.30;92.10
30572;DHT22;17348;50.948;10.696;2022-07-23T18:31:33;24.30;92.30
30572;DHT22;17348;50.948;10.696;2022-07-23T18:34:35;24.20;92.60
30572;DHT22;17348;50.948;10.696;2022-07-23T18:37:37;24.10;92.80
30572;DHT22;17348;50.948;10.696;2022-07-23T18:40:40;24.00;92.80
30572;DHT22;17348;50.948;10.696;2022-07-23T18:43:42;23.90;93.00
30572;DHT22;17348;50.948;10.696;2022-07-23T18:46:46;23.90;93.10
30572;DHT22;17348;50.948;10.696;2022-07-23T18:49:48;23.80;93.40
30572;DHT22;17348;50.948;10.696;2022-07-23T18:52:50;23.70;93.40
30572;DHT22;17348;50.948;10.696;2022-07-23T18:55:54;23.50;93.60
30572;DHT22;17348;50.948;10.696;2022-07-23T18:58:56;23.50;93.80
30572;DHT22;17348;50.948;10.696;2022-07-23T19:02:00;23.40;93.90